Time;durP1;ratioP1;P1;durP2;ratioP2;P2;SDS_P1;SDS_P2;PMS_P1;PMS_P2;Temp;Humidity;BMP_temperature;BMP_pressure;BME280_temperature;BME280_humidity;BME280_pressure;Samples;Min_cycle;Max_cycle;Signal;HPM_P1;HPM_P2
2021/12/05 00:20:48;;;;;;;19.63;17.53;;;;;;;3.15;61.73;99874.97;4972234;28;20455;-45
2021/12/05 00:23:20;;;;;;;20.80;18.73;;;;;;;3.15;62.70;99874.97;4973412;28;20472;-46
2021/12/05 00:25:52;;;;;;;19.90;17.83;;;;;;;3.13;63.59;99877.81;4974153;28;20436;-46
2021/12/05 00:31:28;;;;;;;18.00;16.30;;;;;;;3.09;64.80;99886.19;4967054;28;20468;-42
2021/12/05 00:45:39;;;;;;;13.37;12.30;;;;;;;2.80;74.65;99897.31;4961129;28;20478;-45
2021/12/05 00:59:57;;;;;;;12.33;11.23;;;;;;;2.48;73.34;99911.28;4973438;28;20439;-46
2021/12/05 01:02:39;;;;;;;13.67;12.47;;;;;;;2.49;72.05;99904.22;4973075;28;20471;-42
2021/12/05 01:08:19;;;;;;;12.87;11.87;;;;;;;2.31;70.99;99914.91;4973345;28;20451;-43
2021/12/05 01:11:14;;;;;;;13.07;12.07;;;;;;;2.35;68.83;99907.53;4973497;28;20437;-43
2021/12/05 01:13:55;;;;;;;13.00;11.90;;;;;;;2.32;69.02;99915.75;4972737;28;20488;-43
2021/12/05 01:16:27;;;;;;;14.33;13.13;;;;;;;2.34;67.43;99916.41;4973268;28;20444;-42
2021/12/05 01:18:55;;;;;;;14.03;12.70;;;;;;;2.36;65.95;99917.88;4973376;28;20446;-44
2021/12/05 01:21:24;;;;;;;13.83;12.70;;;;;;;2.35;66.02;99931.22;4973323;28;20457;-42
2021/12/05 01:24:04;;;;;;;13.30;12.33;;;;;;;2.31;67.64;99922.81;4972380;28;20482;-44
2021/12/05 01:26:36;;;;;;;12.70;11.83;;;;;;;2.30;66.46;99928.25;4973187;28;20931;-43
2021/12/05 01:29:16;;;;;;;13.43;12.50;;;;;;;2.28;66.88;99941.56;4973156;28;21000;-43
2021/12/05 01:31:55;;;;;;;12.10;11.20;;;;;;;2.22;68.05;99926.41;4972343;28;20449;-43
2021/12/05 01:37:21;;;;;;;12.60;11.60;;;;;;;2.24;67.90;99942.84;4969507;28;20460;-46
2021/12/05 01:43:07;;;;;;;10.77;10.07;;;;;;;2.10;70.52;99949.59;4953252;28;20471;-45
2021/12/05 01:46:10;;;;;;;11.73;10.90;;;;;;;2.05;70.17;99943.16;4953554;28;20481;-42
2021/12/05 01:57:30;;;;;;;14.40;13.60;;;;;;;1.81;69.79;99959.69;4953603;28;20436;-43
2021/12/05 02:08:47;;;;;;;14.13;13.13;;;;;;;1.42;64.90;99979.56;4953418;29;20444;-44
2021/12/05 02:11:43;;;;;;;14.43;13.53;;;;;;;1.41;63.25;99978.75;4953698;28;20459;-43
2021/12/05 02:36:42;;;;;;;12.80;12.07;;;;;;;1.12;59.78;99996.63;4953971;29;20436;-47
2021/12/05 02:39:22;;;;;;;13.10;12.40;;;;;;;1.01;58.70;100002.97;4965413;28;20454;-43
2021/12/05 02:41:53;;;;;;;12.83;12.13;;;;;;;1.08;57.41;99995.28;4971538;28;20453;-43
2021/12/05 02:44:24;;;;;;;12.83;12.03;;;;;;;1.02;57.64;100001.16;4974197;28;20472;-47
2021/12/05 02:46:58;;;;;;;13.90;13.00;;;;;;;1.00;58.21;99992.59;4976069;28;20429;-43
2021/12/05 02:49:27;;;;;;;13.03;12.17;;;;;;;0.97;57.80;100009.50;4975968;28;20448;-45
2021/12/05 02:51:58;;;;;;;13.37;12.57;;;;;;;0.92;57.01;99996.00;4975059;28;20471;-46
2021/12/05 02:54:32;;;;;;;13.07;12.00;;;;;;;0.87;56.43;100000.03;4975688;28;20467;-48
2021/12/05 02:57:01;;;;;;;13.03;12.23;;;;;;;0.83;55.19;100004.81;4975737;28;20942;-42
2021/12/05 02:59:41;;;;;;;12.47;11.70;;;;;;;0.80;53.50;100006.91;4975647;28;20982;-45
2021/12/05 03:02:12;;;;;;;12.93;12.23;;;;;;;0.83;52.36;100010.06;4974844;28;20999;-46
2021/12/05 03:04:44;;;;;;;12.80;12.10;;;;;;;0.80;51.55;100002.47;4975358;28;20536;-45
2021/12/05 03:07:13;;;;;;;12.40;11.60;;;;;;;0.81;50.45;100011.97;4975812;28;20448;-44
2021/12/05 03:09:43;;;;;;;12.67;11.90;;;;;;;0.81;49.51;100003.28;4975649;28;20990;-48
2021/12/05 03:12:17;;;;;;;12.60;11.80;;;;;;;0.81;48.62;100014.59;4974648;28;20534;-45
2021/12/05 03:14:47;;;;;;;11.13;10.57;;;;;;;0.80;48.42;100015.59;4975325;28;20432;-44
2021/12/05 03:17:15;;;;;;;11.67;11.10;;;;;;;0.85;47.15;100015.97;4975449;28;20791;-44
2021/12/05 03:19:43;;;;;;;10.87;10.37;;;;;;;0.86;46.84;100017.63;4975571;28;20434;-43
2021/12/05 03:22:11;;;;;;;12.27;11.13;;;;;;;0.87;46.49;100026.28;4974588;28;20451;-44
2021/12/05 03:24:38;;;;;;;11.53;10.93;;;;;;;0.89;45.40;100022.56;4975189;28;20791;-43
2021/12/05 03:27:07;;;;;;;11.33;10.83;;;;;;;0.90;45.22;100033.88;4975072;28;20450;-44
2021/12/05 03:29:35;;;;;;;10.97;10.30;;;;;;;0.91;43.96;100027.66;4975212;28;20942;-43
2021/12/05 03:32:03;;;;;;;11.37;10.77;;;;;;;0.91;43.71;100032.91;4974719;28;20465;-44
2021/12/05 03:34:32;;;;;;;10.60;10.00;;;;;;;0.93;42.98;100038.81;4975046;28;20432;-42
2021/12/05 03:37:01;;;;;;;10.37;9.87;;;;;;;0.95;42.21;100039.50;4975189;28;20898;-44
2021/12/05 03:39:29;;;;;;;11.00;10.50;;;;;;;0.95;40.83;100026.38;4974901;28;20436;-43
2021/12/05 03:41:57;;;;;;;10.43;9.87;;;;;;;0.99;41.02;100040.84;4974424;28;20463;-44
2021/12/05 03:44:29;;;;;;;10.67;10.17;;;;;;;1.02;40.42;100038.72;4974504;28;20431;-44
2021/12/05 03:46:58;;;;;;;10.63;9.93;;;;;;;1.09;40.82;100041.56;4975110;28;20479;-42
2021/12/05 03:49:28;;;;;;;10.60;10.10;;;;;;;1.09;41.85;100033.69;4975007;28;20432;-43
2021/12/05 03:51:59;;;;;;;10.77;10.17;;;;;;;1.08;42.60;100040.75;4974205;28;20468;-44
2021/12/05 03:54:27;;;;;;;10.20;9.70;;;;;;;1.09;42.11;100047.66;4974493;28;20437;-44
2021/12/05 03:56:56;;;;;;;10.10;9.70;;;;;;;1.10;41.43;100049.31;4974142;28;20818;-44
2021/12/05 03:59:27;;;;;;;10.50;9.77;;;;;;;1.15;41.07;100043.59;4974727;28;20430;-44
2021/12/05 04:01:57;;;;;;;10.87;10.20;;;;;;;1.15;41.58;100054.09;4974101;28;20471;-45
2021/12/05 04:04:26;;;;;;;10.07;9.63;;;;;;;1.21;41.78;100058.75;4974436;28;20432;-45
2021/12/05 04:06:54;;;;;;;10.80;10.30;;;;;;;1.20;42.75;100056.25;4974369;28;20475;-44
2021/12/05 04:09:22;;;;;;;10.77;10.27;;;;;;;1.21;43.08;100065.78;4974229;28;20438;-44
2021/12/05 04:11:57;;;;;;;10.43;9.93;;;;;;;1.22;43.09;100072.69;4974217;28;20464;-46
2021/12/05 04:14:27;;;;;;;10.80;10.20;;;;;;;1.22;43.85;100075.31;4974249;28;20437;-45
2021/12/05 04:16:55;;;;;;;10.13;9.80;;;;;;;1.23;43.58;100077.78;4974348;28;20443;-45
2021/12/05 04:19:24;;;;;;;10.67;10.07;;;;;;;1.26;43.55;100077.47;4974255;28;20437;-46
2021/12/05 04:21:52;;;;;;;10.70;10.20;;;;;;;1.26;43.95;100082.72;4973484;28;20520;-45
2021/12/05 04:24:22;;;;;;;11.07;10.60;;;;;;;1.27;44.63;100087.00;4974070;28;20432;-46
2021/12/05 04:26:50;;;;;;;10.73;10.23;;;;;;;1.26;44.58;100080.09;4974170;28;20477;-46
2021/12/05 04:29:19;;;;;;;10.87;10.50;;;;;;;1.25;45.28;100096.88;4974230;28;20442;-43
2021/12/05 04:31:47;;;;;;;12.20;11.60;;;;;;;1.25;45.65;100090.78;4973620;28;20449;-43
2021/12/05 04:34:15;;;;;;;11.93;11.33;;;;;;;1.20;46.73;100101.72;4973749;28;20467;-43
2021/12/05 04:36:45;;;;;;;11.27;10.80;;;;;;;1.27;45.69;100097.53;4974175;28;20523;-47
2021/12/05 04:39:14;;;;;;;11.40;10.80;;;;;;;1.28;47.04;100100.97;4973609;28;20443;-42
2021/12/05 04:41:44;;;;;;;12.80;12.10;;;;;;;1.26;48.73;100103.75;4973423;28;20801;-44
2021/12/05 04:44:12;;;;;;;13.37;12.60;;;;;;;1.25;49.71;100093.41;4973696;28;20433;-44
2021/12/05 04:46:40;;;;;;;14.20;13.40;;;;;;;1.23;50.74;100106.69;4973626;28;20473;-43
2021/12/05 04:49:08;;;;;;;12.70;12.00;;;;;;;1.22;51.27;100102.41;4973724;28;20439;-44
2021/12/05 04:51:38;;;;;;;13.43;12.50;;;;;;;1.21;51.95;100111.25;4973235;28;20470;-44
2021/12/05 04:54:08;;;;;;;13.07;12.30;;;;;;;1.26;50.80;100122.13;4973720;28;20433;-49
2021/12/05 04:56:38;;;;;;;12.87;12.17;;;;;;;1.22;52.52;100117.34;4973849;28;20458;-45
2021/12/05 04:59:12;;;;;;;13.37;12.70;;;;;;;1.24;52.23;100120.63;4973497;28;20437;-43
2021/12/05 05:01:40;;;;;;;13.80;13.00;;;;;;;1.24;52.06;100133.75;4973017;28;20987;-43
2021/12/05 05:04:17;;;;;;;12.13;11.43;;;;;;;1.24;53.62;100125.88;4973232;28;20437;-43
2021/12/05 05:06:45;;;;;;;13.37;12.60;;;;;;;1.23;53.28;100140.81;4973499;28;20900;-44
2021/12/05 05:09:14;;;;;;;13.57;12.30;;;;;;;1.21;52.60;100145.41;4973469;28;20781;-46
2021/12/05 05:11:42;;;;;;;13.33;12.63;;;;;;;1.21;52.31;100150.66;4972578;28;21017;-42
2021/12/05 05:14:11;;;;;;;14.60;13.80;;;;;;;1.23;51.56;100156.56;4973300;28;20444;-44
2021/12/05 05:16:39;;;;;;;13.20;12.40;;;;;;;1.23;50.90;100167.06;4973241;28;20443;-44
2021/12/05 05:19:07;;;;;;;13.30;12.40;;;;;;;1.21;51.17;100166.41;4973556;28;20812;-44
2021/12/05 05:21:41;;;;;;;12.77;12.07;;;;;;;1.19;50.91;100164.91;4970379;28;20455;-45
2021/12/05 05:24:52;;;;;;;15.03;14.23;;;;;;;1.19;50.29;100163.13;4972163;28;20924;-42
2021/12/05 05:30:27;;;;;;;14.03;13.23;;;;;;;1.13;50.16;100169.78;4962405;28;20437;-44
2021/12/05 05:39:17;;;;;;;14.63;13.73;;;;;;;1.13;49.18;100176.84;4933924;28;20448;-45
2021/12/05 05:47:27;;;;;;;15.63;14.60;;;;;;;1.17;47.37;100190.47;4911030;29;20488;-43
2021/12/05 05:49:58;;;;;;;13.67;12.97;;;;;;;1.14;47.01;100196.88;4962061;28;20439;-45
2021/12/05 05:52:27;;;;;;;15.03;14.23;;;;;;;1.13;46.79;100182.91;4970822;28;21013;-41
2021/12/05 05:54:57;;;;;;;15.37;14.57;;;;;;;1.14;45.98;100204.75;4969885;28;20933;-44
2021/12/05 05:57:30;;;;;;;15.47;14.60;;;;;;;1.17;44.25;100188.69;4971721;28;20444;-44
2021/12/05 06:00:10;;;;;;;14.37;13.57;;;;;;;1.19;42.95;100199.06;4971458;28;21114;-42
2021/12/05 06:05:24;;;;;;;16.47;15.60;;;;;;;1.21;42.92;100211.06;4971515;28;20436;-44
2021/12/05 06:07:51;;;;;;;16.57;15.67;;;;;;;1.24;41.66;100209.94;4970276;28;20478;-43
2021/12/05 06:10:21;;;;;;;16.07;15.20;;;;;;;1.25;42.21;100217.69;4970733;28;20437;-44
2021/12/05 06:12:50;;;;;;;14.40;13.70;;;;;;;1.24;43.57;100216.03;4970718;28;20853;-43
2021/12/05 06:15:21;;;;;;;14.80;13.90;;;;;;;1.29;42.52;100220.81;4965426;28;20437;-44
2021/12/05 06:17:49;;;;;;;14.27;13.47;;;;;;;1.31;42.07;100218.88;4970735;28;20436;-43
2021/12/05 06:20:19;;;;;;;13.80;13.20;;;;;;;1.32;42.74;100229.22;4974738;28;20441;-44
2021/12/05 06:22:48;;;;;;;15.17;14.27;;;;;;;1.39;42.87;100235.53;4973991;28;20991;-43
2021/12/05 06:25:20;;;;;;;13.73;13.00;;;;;;;1.35;43.71;100234.19;4973501;28;20446;-43
2021/12/05 06:27:48;;;;;;;13.57;12.97;;;;;;;1.34;44.26;100237.78;4974595;28;20852;-44
2021/12/05 06:30:21;;;;;;;13.60;12.90;;;;;;;1.36;44.40;100242.88;4974910;28;20445;-43
2021/12/05 06:38:52;;;;;;;12.97;12.37;;;;;;;1.43;43.89;100257.09;4972747;28;20435;-43
2021/12/05 06:41:24;;;;;;;13.13;12.47;;;;;;;1.44;44.88;100253.47;4973587;28;20452;-44
2021/12/05 06:46:37;;;;;;;12.63;11.93;;;;;;;1.47;44.40;100269.75;4971211;28;20466;-44
2021/12/05 06:49:06;;;;;;;12.43;11.63;;;;;;;1.50;45.34;100279.97;4974007;28;20439;-42
2021/12/05 06:51:34;;;;;;;11.60;10.97;;;;;;;1.53;44.03;100284.09;4972681;28;20464;-41
2021/12/05 06:54:01;;;;;;;11.57;10.87;;;;;;;1.53;44.19;100284.09;4973184;28;20448;-44
2021/12/05 06:56:29;;;;;;;11.30;10.70;;;;;;;1.54;43.90;100289.22;4974024;28;20442;-44
2021/12/05 06:58:57;;;;;;;10.43;9.83;;;;;;;1.54;45.74;100285.75;4973506;28;20827;-43
2021/12/05 07:01:25;;;;;;;11.10;10.50;;;;;;;1.56;46.12;100295.13;4974092;28;20463;-44
2021/12/05 07:03:52;;;;;;;10.70;10.07;;;;;;;1.55;47.01;100292.69;4971656;28;20501;-44
2021/12/05 07:06:25;;;;;;;10.97;10.37;;;;;;;1.51;46.50;100294.78;4973050;28;20536;-44
2021/12/05 07:08:57;;;;;;;10.80;10.23;;;;;;;1.53;44.70;100302.50;4973717;28;20462;-42
2021/12/05 07:11:29;;;;;;;11.87;10.97;;;;;;;1.50;45.08;100305.41;4973794;28;20448;-43
2021/12/05 07:16:44;;;;;;;13.93;12.93;;;;;;;1.49;46.15;100315.09;4953527;28;20855;-43
2021/12/05 07:19:27;;;;;;;12.83;11.83;;;;;;;1.53;45.66;100316.47;4973017;28;20463;-45
2021/12/05 07:22:00;;;;;;;12.13;11.23;;;;;;;1.54;46.33;100327.81;4972675;28;20468;-45
2021/12/05 07:24:41;;;;;;;11.53;10.53;;;;;;;1.51;49.99;100322.84;4973115;28;20431;-43
2021/12/05 07:40:20;;;;;;;13.20;12.20;;;;;;;1.52;49.49;100324.50;4973121;28;20500;-43
2021/12/05 07:41:16;;;;;;;14.10;13.10;;;;;;;1.52;54.33;100363.94;4968281;28;20495;-45
2021/12/05 07:43:44;;;;;;;14.13;13.07;;;;;;;1.53;53.53;100360.31;4969726;28;21015;-44
2021/12/05 07:46:12;;;;;;;14.90;13.60;;;;;;;1.58;52.51;100361.50;4972747;28;20462;-44
2021/12/05 07:48:43;;;;;;;12.47;11.27;;;;;;;1.56;53.30;100360.84;4972765;28;20547;-46
2021/12/05 07:51:21;;;;;;;12.63;11.63;;;;;;;1.53;53.49;100360.31;4970952;28;20467;-44
2021/12/05 07:53:57;;;;;;;12.83;11.83;;;;;;;1.54;53.61;100364.59;4972370;28;20477;-45
2021/12/05 07:56:35;;;;;;;12.13;11.17;;;;;;;1.56;52.53;100367.88;4972870;28;20791;-45
2021/12/05 07:59:24;;;;;;;12.23;11.27;;;;;;;1.53;53.97;100384.78;4973080;28;20425;-46
2021/12/05 08:15:45;;;;;;;22.93;20.50;;;;;;;1.66;56.54;100403.66;4972338;28;20438;-46
2021/12/05 08:18:13;;;;;;;15.63;14.43;;;;;;;1.70;55.86;100408.63;4972099;28;20797;-47
2021/12/05 08:20:44;;;;;;;12.60;11.60;;;;;;;1.70;55.32;100401.56;4972138;28;20461;-44
2021/12/05 08:23:13;;;;;;;14.43;13.20;;;;;;;1.68;56.83;100399.09;4971818;28;20983;-45
2021/12/05 08:25:48;;;;;;;12.97;11.97;;;;;;;1.70;55.92;100401.56;4972537;28;20448;-43
2021/12/05 08:28:27;;;;;;;14.10;12.77;;;;;;;1.73;55.79;100400.44;4972180;28;20463;-46
2021/12/05 08:31:08;;;;;;;14.37;13.17;;;;;;;1.77;55.23;100394.72;4972105;28;20444;-46
2021/12/05 08:33:49;;;;;;;13.07;12.07;;;;;;;1.81;55.46;100418.94;4971617;28;20853;-43
2021/12/05 08:37:02;;;;;;;11.73;10.87;;;;;;;1.80;55.62;100422.53;4966579;28;20454;-43
2021/12/05 08:45:46;;;;;;;11.70;10.90;;;;;;;1.95;54.64;100444.72;4970260;28;20939;-43
2021/12/05 09:38:50;;;;;;;12.30;11.03;;;;;;;2.33;66.56;100544.41;5045066;28;20897;-41
2021/12/05 09:53:22;;;;;;;12.20;11.10;;;;;;;2.49;65.63;100560.38;5038959;28;20483;-43
2021/12/05 10:06:48;;;;;;;11.80;10.93;;;;;;;2.60;65.65;100585.66;5040547;28;20823;-42
2021/12/05 10:09:34;;;;;;;13.83;12.47;;;;;;;2.62;63.74;100587.19;5041612;28;20473;-43
2021/12/05 10:12:21;;;;;;;12.83;11.77;;;;;;;2.67;63.01;100598.06;5046661;28;21125;-44
2021/12/05 10:14:58;;;;;;;15.03;14.00;;;;;;;2.64;64.37;100590.47;5040658;28;20438;-43
2021/12/05 10:17:52;;;;;;;13.43;12.33;;;;;;;2.66;64.56;100606.09;5046708;28;20444;-43
2021/12/05 10:26:18;;;;;;;14.00;12.70;;;;;;;2.63;65.13;100598.50;5047094;28;20435;-43
2021/12/05 10:26:38;;;;;;;12.47;11.40;;;;;;;2.62;65.82;100615.31;5036849;28;20468;-46
2021/12/05 10:35:08;;;;;;;12.07;11.40;;;;;;;2.66;60.88;100604.31;5046645;28;20511;-43
2021/12/05 10:37:45;;;;;;;10.87;10.37;;;;;;;2.71;60.58;100603.88;5028746;28;20440;-42
2021/12/05 10:40:18;;;;;;;11.77;10.83;;;;;;;2.72;61.89;100608.16;5027763;28;20787;-43
2021/12/05 10:42:49;;;;;;;11.30;10.40;;;;;;;2.69;64.25;100619.81;5028696;28;20466;-47
2021/12/05 10:45:33;;;;;;;12.20;11.40;;;;;;;2.70;65.30;100608.31;5033028;28;20443;-47
2021/12/05 10:48:05;;;;;;;11.73;11.00;;;;;;;2.66;65.90;100612.22;5032465;28;20443;-43
2021/12/05 10:50:39;;;;;;;13.97;13.13;;;;;;;2.64;65.16;100624.72;5033411;28;20433;-43
2021/12/05 10:53:26;;;;;;;12.50;11.70;;;;;;;2.71;64.02;100638.13;5031538;28;20473;-42
2021/12/05 10:56:00;;;;;;;14.10;12.50;;;;;;;2.72;63.17;100632.69;5033124;28;20433;-41
2021/12/05 10:58:37;;;;;;;13.07;12.27;;;;;;;2.74;62.51;100641.28;5023834;28;20938;-43
2021/12/05 11:01:09;;;;;;;15.03;14.07;;;;;;;2.75;61.83;100619.22;5032802;28;20452;-44
2021/12/05 11:03:38;;;;;;;14.90;14.10;;;;;;;2.75;63.15;100644.72;5032325;28;20464;-44
2021/12/05 11:06:20;;;;;;;15.13;13.80;;;;;;;2.76;62.96;100652.47;5032483;28;20476;-45
2021/12/05 11:08:52;;;;;;;15.33;14.03;;;;;;;2.75;63.99;100658.72;5032737;28;20440;-45
2021/12/05 11:11:20;;;;;;;14.27;13.17;;;;;;;2.82;63.07;100663.38;5024218;28;20449;-46
2021/12/05 11:13:49;;;;;;;13.63;12.63;;;;;;;2.82;65.76;100663.38;5031629;28;20457;-42
2021/12/05 11:16:40;;;;;;;13.70;12.90;;;;;;;2.74;70.69;100670.25;5022168;28;20431;-43
2021/12/05 11:19:15;;;;;;;14.30;13.47;;;;;;;2.76;69.58;100668.28;5022790;28;20519;-43
2021/12/05 11:21:51;;;;;;;17.13;16.00;;;;;;;2.81;69.13;100661.75;5029937;28;20454;-42
2021/12/05 11:24:29;;;;;;;16.00;15.20;;;;;;;2.76;69.77;100680.63;5032392;28;20445;-43
2021/12/05 11:27:21;;;;;;;15.43;14.63;;;;;;;2.75;68.70;100677.16;5022949;28;20472;-42
2021/12/05 11:30:03;;;;;;;15.13;14.03;;;;;;;2.73;68.07;100675.63;5017888;28;20941;-43
2021/12/05 11:32:37;;;;;;;15.70;14.40;;;;;;;2.68;67.81;100683.16;5020225;28;20474;-45
2021/12/05 11:35:14;;;;;;;14.00;13.00;;;;;;;2.67;68.47;100692.03;5023107;28;20424;-42
2021/12/05 11:37:53;;;;;;;14.27;13.37;;;;;;;2.63;68.41;100699.38;5022228;28;20434;-45
2021/12/05 11:40:21;;;;;;;16.23;15.23;;;;;;;2.63;67.59;100694.13;5023530;28;20421;-45
2021/12/05 11:42:55;;;;;;;16.77;15.47;;;;;;;2.64;66.25;100692.31;5027016;28;20460;-43
2021/12/05 11:45:23;;;;;;;16.37;15.47;;;;;;;2.61;66.64;100692.63;5027267;28;20431;-43
2021/12/05 11:47:53;;;;;;;16.80;15.80;;;;;;;2.68;64.66;100707.69;5031087;28;20484;-42
2021/12/05 11:50:31;;;;;;;15.50;14.40;;;;;;;2.62;64.90;100705.66;5030968;28;20445;-42
2021/12/05 11:53:01;;;;;;;16.40;15.30;;;;;;;2.57;65.06;100717.59;5006193;28;20467;-46
2021/12/05 11:55:32;;;;;;;16.17;14.90;;;;;;;2.56;63.66;100711.50;5030944;28;20459;-42
2021/12/05 11:58:01;;;;;;;16.83;15.57;;;;;;;2.57;62.50;100718.41;5025167;28;20425;-43
2021/12/05 12:00:30;;;;;;;13.63;12.73;;;;;;;2.54;63.63;100717.88;5031773;28;20436;-44
2021/12/05 12:02:58;;;;;;;15.33;13.90;;;;;;;2.54;62.54;100721.31;5031574;28;20502;-41
2021/12/05 12:05:29;;;;;;;15.90;14.20;;;;;;;2.51;64.30;100720.81;5031119;28;20464;-46
2021/12/05 12:08:05;;;;;;;14.30;13.27;;;;;;;2.56;62.68;100722.03;5031043;28;20476;-43
2021/12/05 12:10:35;;;;;;;14.97;13.90;;;;;;;2.55;63.43;100723.00;5030917;28;20921;-42
2021/12/05 12:13:07;;;;;;;15.23;13.97;;;;;;;2.59;62.33;100724.38;5031193;28;20452;-43
2021/12/05 12:15:35;;;;;;;15.80;14.70;;;;;;;2.57;63.53;100726.28;5030915;28;20463;-42
2021/12/05 12:18:10;;;;;;;15.97;14.83;;;;;;;2.51;64.43;100726.06;5020756;28;20432;-46
2021/12/05 12:20:39;;;;;;;19.70;18.00;;;;;;;2.56;61.94;100734.34;5031281;28;20816;-43
2021/12/05 12:23:08;;;;;;;16.90;15.40;;;;;;;2.64;60.60;100735.28;5030673;28;20433;-42
2021/12/05 12:25:39;;;;;;;16.70;15.13;;;;;;;2.58;63.50;100735.84;5016572;28;20465;-44
2021/12/05 12:28:09;;;;;;;15.07;13.97;;;;;;;2.59;62.75;100742.78;5018981;28;20472;-42
2021/12/05 12:30:40;;;;;;;14.10;13.07;;;;;;;2.65;60.81;100747.47;5013749;28;20493;-42
2021/12/05 12:33:11;;;;;;;15.10;13.90;;;;;;;2.70;59.79;100744.41;5011787;28;20429;-44
2021/12/05 12:35:39;;;;;;;14.00;13.00;;;;;;;2.68;59.96;100734.03;5030253;28;20468;-41
2021/12/05 12:38:14;;;;;;;14.60;13.57;;;;;;;2.75;58.42;100740.34;5030235;28;20455;-42
2021/12/05 12:40:44;;;;;;;14.63;13.43;;;;;;;2.77;58.95;100741.06;5024374;28;20826;-43
2021/12/05 12:43:44;;;;;;;15.27;14.07;;;;;;;2.80;57.99;100745.19;5030678;28;20432;-43
2021/12/05 12:46:27;;;;;;;13.87;12.77;;;;;;;2.88;57.72;100747.06;5027918;28;20452;-44
2021/12/05 12:49:00;;;;;;;12.17;11.37;;;;;;;2.93;57.70;100743.03;5028752;28;20968;-42
2021/12/05 12:51:35;;;;;;;12.70;11.80;;;;;;;2.99;59.14;100749.50;5030838;28;20456;-43
2021/12/05 12:54:10;;;;;;;11.80;10.80;;;;;;;3.01;59.44;100751.03;5017592;28;20461;-43
2021/12/05 12:56:40;;;;;;;12.60;11.40;;;;;;;3.05;60.43;100756.81;5021569;28;20439;-41
2021/12/05 12:59:12;;;;;;;12.30;11.23;;;;;;;3.06;61.54;100761.13;5020186;28;20447;-41
2021/12/05 13:02:14;;;;;;;11.80;10.80;;;;;;;3.13;60.29;100760.38;5017666;28;20992;-41
2021/12/05 13:05:15;;;;;;;11.30;10.40;;;;;;;3.05;64.57;100760.28;5025240;28;20461;-44
2021/12/05 13:10:35;;;;;;;13.03;12.00;;;;;;;3.09;63.87;100772.19;5026938;28;20440;-48
2021/12/05 13:13:09;;;;;;;11.50;10.50;;;;;;;3.11;63.94;100772.03;5030395;28;20459;-45
2021/12/05 13:15:42;;;;;;;11.83;10.83;;;;;;;3.04;66.44;100777.09;5030444;28;20463;-45
2021/12/05 13:18:23;;;;;;;11.20;10.50;;;;;;;3.10;64.74;100780.94;5030600;28;20851;-45
2021/12/05 13:20:56;;;;;;;11.03;10.17;;;;;;;3.10;65.60;100779.13;5030679;28;20937;-43
2021/12/05 13:23:32;;;;;;;10.97;10.27;;;;;;;3.18;63.29;100783.66;5029393;28;20428;-45
2021/12/05 13:26:19;;;;;;;10.27;9.27;;;;;;;3.15;66.30;100784.78;5030561;28;20474;-45
2021/12/05 13:28:49;;;;;;;9.00;8.40;;;;;;;3.05;68.23;100793.69;5030265;28;20471;-43
2021/12/05 13:31:38;;;;;;;10.70;9.90;;;;;;;3.03;68.64;100793.84;5030436;28;20466;-45
2021/12/05 13:34:19;;;;;;;10.60;9.60;;;;;;;2.98;68.85;100798.75;5030111;28;20467;-45
2021/12/05 13:36:51;;;;;;;9.70;8.80;;;;;;;2.92;69.17;100809.03;5029822;28;20434;-44
2021/12/05 13:39:32;;;;;;;9.43;8.83;;;;;;;2.94;67.10;100801.81;5028977;28;20471;-44
2021/12/05 13:42:05;;;;;;;12.20;8.97;;;;;;;2.90;67.27;100818.91;5029116;28;20455;-42
2021/12/05 13:45:12;;;;;;;11.30;10.40;;;;;;;2.87;65.06;100816.56;5030200;28;20468;-47
2021/12/05 13:47:43;;;;;;;9.60;9.00;;;;;;;2.84;64.79;100814.22;5029805;28;20977;-46
2021/12/05 13:50:33;;;;;;;9.20;8.70;;;;;;;2.91;62.38;100820.53;5030375;28;20447;-47
2021/12/05 13:53:21;;;;;;;9.43;8.83;;;;;;;2.90;62.88;100824.16;5030084;28;20958;-44
2021/12/05 13:55:58;;;;;;;11.20;10.40;;;;;;;2.91;62.64;100829.25;5030524;28;20451;-45
2021/12/05 13:58:32;;;;;;;9.70;8.90;;;;;;;2.87;63.09;100830.53;5029856;28;20435;-43
2021/12/05 14:01:02;;;;;;;11.27;10.40;;;;;;;2.88;61.75;100828.72;5029330;28;20437;-42
2021/12/05 14:03:53;;;;;;;10.80;10.00;;;;;;;2.91;60.85;100836.34;5029592;28;21017;-42
2021/12/05 14:06:49;;;;;;;10.73;9.83;;;;;;;2.87;61.01;100837.63;5030082;28;20429;-44
2021/12/05 14:09:20;;;;;;;10.23;9.60;;;;;;;2.84;60.51;100841.34;5024007;28;20517;-45
2021/12/05 14:11:53;;;;;;;10.73;10.03;;;;;;;2.87;58.50;100851.59;5030583;28;20915;-41
2021/12/05 14:14:26;;;;;;;11.70;10.60;;;;;;;2.88;57.56;100857.69;5033433;28;20464;-41
2021/12/05 14:16:56;;;;;;;11.73;10.43;;;;;;;2.88;56.81;100852.44;5033623;28;20489;-47
2021/12/05 14:19:27;;;;;;;11.73;10.87;;;;;;;2.89;56.02;100856.72;5033709;28;20436;-43
2021/12/05 14:21:58;;;;;;;11.50;10.63;;;;;;;2.88;55.78;100862.97;5033401;28;21037;-45
2021/12/05 14:24:31;;;;;;;13.30;12.30;;;;;;;2.90;55.34;100861.84;5032867;28;20467;-43
2021/12/05 14:27:01;;;;;;;12.30;11.33;;;;;;;2.89;54.54;100862.00;5033267;28;20454;-42
2021/12/05 14:29:33;;;;;;;14.27;13.10;;;;;;;2.88;54.02;100869.06;5033524;28;20479;-45
2021/12/05 14:32:07;;;;;;;15.33;14.00;;;;;;;2.93;52.44;100876.56;5033485;28;20456;-42
2021/12/05 14:34:35;;;;;;;15.07;13.83;;;;;;;2.94;52.22;100873.75;5032997;28;20478;-44
2021/12/05 14:37:07;;;;;;;14.00;12.70;;;;;;;2.96;52.21;100882.34;5032775;28;20440;-42
2021/12/05 14:39:37;;;;;;;15.00;13.60;;;;;;;2.97;52.36;100877.91;5029780;28;20436;-44
2021/12/05 14:42:07;;;;;;;16.43;14.87;;;;;;;2.98;52.32;100887.47;5033066;28;20437;-41
2021/12/05 14:44:38;;;;;;;13.30;12.00;;;;;;;3.01;51.09;100888.03;5032886;28;20833;-44
2021/12/05 14:47:09;;;;;;;15.23;13.83;;;;;;;3.05;51.51;100893.81;5033039;28;20443;-43
2021/12/05 14:49:40;;;;;;;13.87;12.50;;;;;;;3.05;51.77;100899.91;5033234;28;20475;-42
2021/12/05 14:52:10;;;;;;;16.70;12.10;;;;;;;3.03;51.49;100908.94;5032983;28;20813;-43
2021/12/05 14:54:40;;;;;;;13.67;12.27;;;;;;;3.01;50.55;100911.72;5032729;28;20468;-44
2021/12/05 14:57:11;;;;;;;12.40;11.20;;;;;;;3.04;49.21;100916.72;5032629;28;20435;-46
2021/12/05 14:59:42;;;;;;;11.73;10.70;;;;;;;3.02;49.18;100923.06;5033226;28;20814;-43
2021/12/05 15:02:12;;;;;;;12.30;11.30;;;;;;;3.05;47.35;100920.16;5032414;28;21076;-41
2021/12/05 15:04:43;;;;;;;10.00;9.30;;;;;;;3.02;46.50;100923.91;5032760;28;20467;-43
2021/12/05 15:07:12;;;;;;;9.70;9.20;;;;;;;3.03;43.86;100925.59;5032008;28;20425;-43
2021/12/05 15:09:41;;;;;;;10.07;9.43;;;;;;;3.05;42.09;100935.97;5032680;28;20481;-47
2021/12/05 15:12:14;;;;;;;7.63;7.43;;;;;;;3.03;40.30;100941.38;5032993;28;20452;-44
2021/12/05 15:14:46;;;;;;;12.50;11.90;;;;;;;3.03;40.71;100948.47;5032363;28;20468;-43
2021/12/05 15:17:15;;;;;;;18.00;17.40;;;;;;;3.02;40.23;100957.31;5032428;28;20436;-42
2021/12/05 15:19:46;;;;;;;24.00;22.60;;;;;;;3.03;39.40;100961.63;5032669;28;20954;-43
2021/12/05 15:22:34;;;;;;;22.30;21.40;;;;;;;3.03;38.75;100970.38;5032304;28;20456;-45
2021/12/05 15:25:06;;;;;;;25.23;24.00;;;;;;;2.98;39.82;100961.25;5032224;28;20475;-45
2021/12/05 15:27:37;;;;;;;24.10;23.00;;;;;;;2.94;41.95;100988.81;5032051;28;20429;-42
2021/12/05 15:30:10;;;;;;;24.07;22.77;;;;;;;2.94;42.34;100967.75;5032648;28;20476;-45
2021/12/05 15:32:38;;;;;;;21.13;20.10;;;;;;;2.94;41.78;100967.75;5031826;28;20463;-43
2021/12/05 15:35:08;;;;;;;22.97;20.77;;;;;;;2.95;39.89;100974.69;5031570;28;20468;-45
2021/12/05 15:37:36;;;;;;;22.47;21.57;;;;;;;2.99;36.63;100979.53;5031824;28;20440;-43
2021/12/05 15:40:06;;;;;;;22.60;21.77;;;;;;;2.98;35.76;100980.50;5028626;28;20776;-44
2021/12/05 15:42:37;;;;;;;23.73;22.40;;;;;;;2.98;36.63;100990.22;5028367;28;20451;-43
2021/12/05 15:45:10;;;;;;;25.13;23.40;;;;;;;2.95;36.45;100987.88;5031853;28;20458;-43
2021/12/05 15:47:39;;;;;;;24.70;23.40;;;;;;;2.92;36.50;100998.69;5031703;28;20847;-45
2021/12/05 15:50:09;;;;;;;23.77;22.50;;;;;;;2.94;33.92;101010.75;5031835;28;20479;-45